Time;durP1;ratioP1;P1;durP2;ratioP2;P2;SDS_P1;SDS_P2;PMS_P1;PMS_P2;Temp;Humidity;BMP_temperature;BMP_pressure;BME280_temperature;BME280_humidity;BME280_pressure;Samples;Min_cycle;Max_cycle;Signal;HPM_P1;HPM_P2
2023/09/20 00:02:22;;;;;;;3.55;1.50;;;16.50;66.90;;;18.35;49.54;97531.63;5018666;28;20055;-69
2023/09/20 00:04:50;;;;;;;3.72;1.70;;;16.50;67.20;;;18.33;49.55;97531.84;5018717;28;20037;-68
2023/09/20 00:07:18;;;;;;;4.10;2.08;;;16.40;67.40;;;18.26;49.75;97534.56;5016109;28;20042;-68
2023/09/20 00:09:45;;;;;;;2.67;1.80;;;16.40;68.40;;;18.19;49.95;97535.63;5016456;28;20042;-68
2023/09/20 00:12:13;;;;;;;3.25;1.42;;;16.30;67.60;;;18.20;49.94;97532.72;5019891;28;20056;-67
2023/09/20 00:14:40;;;;;;;3.25;1.80;;;16.40;67.40;;;18.18;50.06;97532.09;5020582;28;20050;-68
2023/09/20 00:17:08;;;;;;;2.03;1.60;;;16.40;67.30;;;18.14;50.09;97520.09;5015235;28;20042;-68
2023/09/20 00:19:38;;;;;;;2.78;1.85;;;16.30;67.50;;;18.15;50.04;97518.25;5015014;28;20046;-68
2023/09/20 00:22:07;;;;;;;2.28;2.08;;;16.40;67.30;;;18.16;49.99;97520.69;5017430;28;20419;-68
2023/09/20 00:24:35;;;;;;;3.65;1.80;;;16.40;67.10;;;18.16;49.78;97519.88;5019241;28;20393;-67
2023/09/20 00:27:03;;;;;;;3.15;1.75;;;16.40;67.10;;;18.15;50.06;97520.94;5017041;28;20041;-67
2023/09/20 00:29:30;;;;;;;3.08;1.85;;;16.40;68.10;;;18.15;50.05;97513.69;5023057;28;20038;-67
2023/09/20 00:31:58;;;;;;;3.30;1.90;;;16.40;67.30;;;18.17;50.07;97522.38;5016957;28;20691;-68
2023/09/20 00:34:26;;;;;;;2.65;1.50;;;16.40;67.30;;;18.17;50.02;97511.59;5015637;28;20053;-67
2023/09/20 00:36:55;;;;;;;2.70;1.73;;;16.30;67.20;;;18.15;50.00;97512.84;5024653;28;20057;-67
2023/09/20 00:39:23;;;;;;;3.22;1.90;;;16.30;67.40;;;18.16;50.04;97509.94;5015785;28;20042;-67
2023/09/20 00:41:50;;;;;;;3.40;2.13;;;16.30;67.30;;;18.18;49.96;97515.09;5016125;28;20038;-67
2023/09/20 00:44:19;;;;;;;2.67;1.50;;;16.40;67.10;;;18.18;49.67;97507.84;5018784;28;20042;-68
2023/09/20 00:46:46;;;;;;;2.03;1.77;;;16.40;67.30;;;18.16;49.94;97503.72;5019047;28;20393;-68
2023/09/20 00:49:14;;;;;;;2.20;1.40;;;16.30;67.50;;;18.15;50.07;97512.84;5006144;28;20530;-68
2023/09/20 00:51:44;;;;;;;3.40;1.80;;;16.30;67.60;;;18.13;50.09;97518.44;5004926;28;20067;-68
2023/09/20 00:54:14;;;;;;;3.30;1.90;;;16.30;67.80;;;18.08;50.34;97511.00;5018380;28;20420;-67
2023/09/20 00:56:43;;;;;;;3.55;1.65;;;16.20;68.00;;;18.01;50.34;97512.91;5017703;28;20527;-67
2023/09/20 00:59:11;;;;;;;3.22;2.10;;;16.20;68.30;;;17.97;50.49;97508.13;5024249;28;20054;-67
2023/09/20 01:01:40;;;;;;;4.85;1.90;;;16.10;68.70;;;17.87;50.83;97513.94;5007454;28;20505;-67
2023/09/20 01:04:08;;;;;;;3.33;1.80;;;16.00;69.10;;;17.85;50.70;97511.47;5016354;28;20543;-67
2023/09/20 01:06:39;;;;;;;3.60;2.42;;;16.00;69.20;;;17.82;51.00;97511.06;5018830;28;20038;-67
2023/09/20 01:09:09;;;;;;;2.47;1.60;;;16.00;69.30;;;17.77;51.12;97514.34;5014800;28;20457;-68
2023/09/20 01:11:38;;;;;;;4.10;2.10;;;16.00;69.20;;;17.74;51.37;97516.63;5016756;28;20038;-68
2023/09/20 01:14:05;;;;;;;3.05;1.67;;;16.00;69.50;;;17.72;51.35;97511.50;5018001;28;20413;-68
2023/09/20 01:16:33;;;;;;;2.70;1.77;;;15.90;69.80;;;17.71;51.50;97515.19;5005807;28;20045;-68
2023/09/20 01:19:04;;;;;;;7.07;1.67;;;15.90;69.90;;;17.69;51.45;97515.41;5020435;28;20060;-68
2023/09/20 01:21:43;;;;;;;2.28;1.70;;;15.90;70.90;;;17.67;51.74;97506.72;5018570;28;20033;-67
2023/09/20 01:24:12;;;;;;;2.80;1.67;;;15.90;70.00;;;17.69;51.60;97506.50;5018471;28;20405;-67
2023/09/20 01:26:41;;;;;;;3.13;1.75;;;16.00;70.00;;;17.68;51.84;97511.06;5036585;28;20042;-67
2023/09/20 01:32:02;;;;;;;2.55;1.63;;;16.00;70.40;;;17.66;51.90;97505.06;6161435;22;20349;-67
2023/09/20 01:34:31;;;;;;;2.95;2.00;;;16.00;70.50;;;17.65;52.06;97505.28;5012267;28;20052;-68
2023/09/20 01:36:59;;;;;;;2.72;1.90;;;16.00;70.40;;;17.71;51.84;97501.75;5042395;28;20052;-67
2023/09/20 01:39:27;;;;;;;3.17;1.70;;;16.00;70.10;;;17.64;52.02;97509.84;5035629;28;20033;-68
2023/09/20 01:41:55;;;;;;;3.20;2.00;;;16.00;70.10;;;17.71;51.93;97509.81;5034765;28;20041;-67
2023/09/20 01:44:24;;;;;;;2.30;1.60;;;16.20;69.60;;;17.72;51.88;97503.41;5014866;28;20420;-68
2023/09/20 01:46:51;;;;;;;4.07;2.63;;;16.20;69.10;;;17.76;51.88;97498.41;5014977;28;20049;-68
2023/09/20 01:49:21;;;;;;;3.45;1.65;;;16.30;68.90;;;17.83;51.70;97507.31;5006379;28;20500;-68
2023/09/20 01:51:48;;;;;;;4.55;2.88;;;16.30;68.50;;;17.80;51.77;97505.88;5019793;28;20049;-68
2023/09/20 01:54:16;;;;;;;2.72;1.92;;;16.20;68.50;;;17.84;51.60;97503.63;5024149;28;20064;-67
2023/09/20 01:56:44;;;;;;;3.13;1.92;;;16.30;68.30;;;17.90;51.50;97502.78;5044409;28;20045;-67
2023/09/20 01:59:12;;;;;;;2.80;1.70;;;16.40;68.00;;;17.92;51.30;97500.69;5008382;28;20057;-67
2023/09/20 02:01:39;;;;;;;2.17;1.70;;;16.40;68.10;;;17.95;51.32;97499.44;5022855;28;20068;-67
2023/09/20 02:04:08;;;;;;;2.55;2.08;;;16.40;68.10;;;17.89;51.37;97499.25;5021840;28;20053;-67
2023/09/20 02:06:36;;;;;;;2.35;1.70;;;16.30;68.20;;;17.90;51.39;97492.81;5025618;28;20416;-67
2023/09/20 02:09:04;;;;;;;2.53;1.60;;;16.30;68.20;;;17.93;51.28;97494.25;5042944;28;20045;-67
2023/09/20 02:11:32;;;;;;;2.10;1.88;;;16.40;68.00;;;17.94;51.44;97489.72;4998228;28;20056;-68
2023/09/20 02:14:00;;;;;;;3.20;2.00;;;16.30;68.30;;;17.94;51.23;97490.53;5040774;28;20487;-68
2023/09/20 02:16:31;;;;;;;3.72;1.75;;;16.30;68.40;;;17.91;51.20;97490.94;5025931;28;20041;-67
2023/09/20 02:18:59;;;;;;;3.10;2.10;;;16.20;68.60;;;17.87;51.23;97490.56;5042309;28;20048;-68
2023/09/20 02:21:27;;;;;;;2.25;1.60;;;16.20;68.70;;;17.86;51.33;97483.50;5013896;28;20047;-67
2023/09/20 02:23:56;;;;;;;3.22;1.90;;;16.20;68.70;;;17.82;51.39;97494.91;5029671;28;20143;-67
2023/09/20 02:26:24;;;;;;;2.72;1.77;;;16.10;69.70;;;17.80;51.40;97484.34;5018820;28;20488;-68
2023/09/20 02:28:52;;;;;;;4.55;1.73;;;16.10;68.70;;;17.84;51.34;97488.28;5009523;28;20048;-68
2023/09/20 02:31:20;;;;;;;2.85;1.98;;;16.20;68.60;;;17.85;51.40;97486.41;5022902;28;20045;-67
2023/09/20 02:33:47;;;;;;;1.95;1.70;;;16.20;68.40;;;17.87;51.30;97481.63;5040286;28;20064;-68
2023/09/20 02:36:16;;;;;;;2.95;1.70;;;16.20;68.00;;;17.86;51.28;97483.50;5032261;28;20052;-68
2023/09/20 02:38:44;;;;;;;3.70;1.85;;;16.30;68.00;;;17.93;51.34;97483.47;5025665;28;20045;-68
2023/09/20 02:41:12;;;;;;;2.67;2.10;;;16.40;67.80;;;17.96;51.14;97480.38;5023606;28;20064;-67
2023/09/20 02:43:39;;;;;;;2.63;1.70;;;16.40;67.40;;;17.90;51.30;97473.97;5029889;28;20045;-68
2023/09/20 02:46:08;;;;;;;2.00;1.63;;;16.40;67.60;;;17.93;51.32;97477.28;5029762;28;20053;-68
2023/09/20 02:48:36;;;;;;;2.45;1.70;;;16.40;67.40;;;17.91;51.31;97482.88;5030457;28;20049;-68
2023/09/20 02:51:05;;;;;;;3.35;1.73;;;16.40;67.70;;;17.96;51.24;97480.38;5020059;28;20417;-67
2023/09/20 02:53:34;;;;;;;2.58;1.65;;;16.40;67.70;;;17.90;51.43;97476.66;5016814;28;20049;-68
2023/09/20 02:56:05;;;;;;;2.58;1.90;;;16.40;67.80;;;17.91;51.31;97480.16;5025185;28;20419;-68
2023/09/20 02:58:33;;;;;;;2.67;1.60;;;16.40;67.90;;;17.93;51.46;97474.59;5005750;28;20053;-68
2023/09/20 03:01:02;;;;;;;3.60;2.35;;;16.40;67.90;;;17.95;51.25;97480.59;5012568;28;20054;-68
2023/09/20 03:03:29;;;;;;;3.15;1.73;;;16.40;68.00;;;17.94;51.33;97479.75;4997880;28;20472;-68
2023/09/20 03:06:08;;;;;;;2.45;1.85;;;16.40;68.10;;;17.97;51.13;97475.81;5038040;28;20052;-68
2023/09/20 03:08:36;;;;;;;1.83;1.27;;;16.40;68.10;;;17.97;51.22;97475.81;5011555;28;20053;-68
2023/09/20 03:11:03;;;;;;;3.70;1.67;;;16.30;68.40;;;17.93;51.54;97466.50;5018327;28;20046;-68
2023/09/20 03:13:31;;;;;;;2.35;1.80;;;16.30;68.80;;;17.89;51.49;97461.56;5008690;28;20064;-68
2023/09/20 03:16:01;;;;;;;2.45;1.40;;;16.10;69.30;;;17.86;51.53;97463.84;5042856;28;20060;-68
2023/09/20 03:18:29;;;;;;;4.15;2.05;;;16.10;69.70;;;17.84;51.69;97453.28;5016699;28;20041;-68
2023/09/20 03:21:05;;;;;;;2.40;1.80;;;16.10;69.70;;;17.83;51.64;97451.59;5017117;28;20053;-68
2023/09/20 03:23:35;;;;;;;3.17;1.60;;;16.10;69.70;;;17.74;51.76;97455.56;5010262;28;20049;-68
2023/09/20 03:26:06;;;;;;;3.10;1.70;;;16.10;69.70;;;17.74;51.93;97452.03;5016580;28;20050;-68
2023/09/20 03:28:35;;;;;;;3.30;1.88;;;16.10;69.70;;;17.76;52.01;97444.56;5024756;28;20037;-68
2023/09/20 03:31:06;;;;;;;2.97;2.00;;;16.10;69.50;;;17.76;51.82;97445.41;5032250;28;20088;-68
2023/09/20 03:33:34;;;;;;;1.90;1.40;;;16.10;69.30;;;17.77;51.97;97449.75;5012697;28;20056;-69
2023/09/20 03:36:15;;;;;;;1.92;1.42;;;16.20;69.20;;;17.77;51.80;97448.94;5026822;28;20097;-69
2023/09/20 03:38:45;;;;;;;3.35;1.70;;;16.20;69.20;;;17.74;52.04;97455.56;5026155;28;20053;-69
2023/09/20 03:41:13;;;;;;;2.83;1.70;;;16.10;69.60;;;17.76;51.89;97442.72;5023202;28;20053;-68
2023/09/20 03:43:45;;;;;;;3.83;2.00;;;16.10;69.70;;;17.72;52.17;97441.50;5017730;28;20046;-68
2023/09/20 03:46:14;;;;;;;3.10;1.80;;;16.00;70.20;;;17.63;52.32;97435.50;5018700;28;20067;-68
2023/09/20 03:48:43;;;;;;;2.83;1.83;;;15.90;71.10;;;17.60;52.44;97437.78;5038812;28;20037;-68
2023/09/20 03:51:19;;;;;;;3.55;1.83;;;15.80;71.30;;;17.58;52.39;97439.84;4997661;28;20468;-68
2023/09/20 03:53:49;;;;;;;3.15;1.70;;;15.80;71.60;;;17.49;52.81;97428.50;5025132;28;20055;-68
2023/09/20 03:56:21;;;;;;;3.60;1.65;;;15.70;72.00;;;17.43;52.81;97429.34;5022642;28;20053;-69
2023/09/20 03:58:49;;;;;;;2.40;1.90;;;15.70;72.20;;;17.44;52.85;97431.81;5027063;28;20529;-68
2023/09/20 04:01:17;;;;;;;5.63;2.83;;;15.70;72.20;;;17.39;53.14;97430.78;5038514;28;20060;-68
2023/09/20 04:03:45;;;;;;;3.25;2.30;;;15.60;72.60;;;17.35;52.99;97434.94;4996271;28;20120;-69
2023/09/20 04:06:13;;;;;;;2.05;1.52;;;15.60;72.70;;;17.36;53.14;97426.66;5013263;28;20060;-70
2023/09/20 04:08:41;;;;;;;2.70;1.65;;;15.70;72.50;;;17.38;53.07;97419.19;5024940;28;20045;-68
2023/09/20 04:11:11;;;;;;;3.13;1.90;;;15.70;72.30;;;17.32;53.30;97428.13;5023896;28;20518;-69
2023/09/20 04:13:40;;;;;;;2.53;1.75;;;15.60;72.70;;;17.26;53.41;97427.09;5017042;28;20053;-69
2023/09/20 04:16:08;;;;;;;2.75;2.00;;;15.60;72.90;;;17.25;53.23;97427.28;5009255;28;20054;-68
2023/09/20 04:18:37;;;;;;;2.83;1.90;;;15.50;72.80;;;17.21;53.54;97428.75;5017066;28;20049;-69
2023/09/20 04:21:05;;;;;;;3.30;2.00;;;15.60;72.80;;;17.18;53.49;97430.00;5030782;28;20523;-69
2023/09/20 04:23:33;;;;;;;2.88;1.65;;;15.50;72.90;;;17.18;53.48;97424.63;5024183;28;20514;-69
2023/09/20 04:26:03;;;;;;;4.07;1.70;;;15.50;73.00;;;17.16;53.54;97425.84;5024177;28;20097;-69
2023/09/20 04:28:31;;;;;;;7.22;2.03;;;15.50;72.90;;;17.22;53.32;97422.34;5026346;28;20042;-69
2023/09/20 04:31:00;;;;;;;2.90;1.55;;;15.60;72.50;;;17.22;53.48;97412.41;5034529;28;20041;-69
2023/09/20 04:33:27;;;;;;;4.25;1.98;;;15.60;72.40;;;17.25;53.51;97417.38;5015094;28;20055;-69
2023/09/20 04:35:57;;;;;;;2.13;1.35;;;15.70;72.20;;;17.22;53.58;97416.97;5023269;28;20425;-69
2023/09/20 04:38:26;;;;;;;2.63;1.95;;;15.70;72.40;;;17.24;53.62;97420.28;5020258;28;20045;-68
2023/09/20 04:40:56;;;;;;;3.03;1.63;;;15.70;72.40;;;17.25;53.47;97408.47;5012308;28;20049;-69
2023/09/20 04:43:24;;;;;;;3.20;2.10;;;15.60;72.60;;;17.27;53.43;97399.16;5022456;28;20050;-69
2023/09/20 04:45:54;;;;;;;3.10;2.13;;;15.70;72.50;;;17.27;53.48;97403.69;5039713;28;20425;-71
2023/09/20 04:48:22;;;;;;;6.72;2.53;;;15.70;72.70;;;17.24;53.52;97402.25;5043537;28;20044;-69
2023/09/20 04:50:51;;;;;;;3.55;1.60;;;15.60;72.80;;;17.25;53.62;97408.47;5004471;28;20049;-70
2023/09/20 04:53:18;;;;;;;2.65;1.85;;;15.60;72.70;;;17.19;53.62;97407.44;4998029;28;20051;-69
2023/09/20 04:55:47;;;;;;;3.05;1.75;;;15.60;72.90;;;17.18;53.95;97407.66;5020372;28;20050;-69
2023/09/20 04:58:14;;;;;;;2.55;1.50;;;15.60;72.90;;;17.21;53.80;97409.91;5015798;28;20060;-69
2023/09/20 05:00:42;;;;;;;3.38;1.63;;;15.60;72.80;;;17.24;53.91;97396.06;5015226;28;20052;-69
2023/09/20 05:03:15;;;;;;;4.25;2.08;;;15.70;72.80;;;17.27;53.81;97403.69;5016318;28;20052;-69
2023/09/20 05:05:44;;;;;;;2.30;1.70;;;15.70;72.90;;;17.26;53.76;97410.94;5045207;28;20033;-68
2023/09/20 05:08:15;;;;;;;2.67;1.90;;;15.60;73.00;;;17.24;53.85;97406.81;5010966;28;20052;-68
2023/09/20 05:10:43;;;;;;;4.32;2.10;;;15.60;73.20;;;17.28;53.86;97398.09;5032329;28;20049;-70
2023/09/20 05:13:11;;;;;;;2.40;1.48;;;15.60;73.10;;;17.26;54.03;97402.88;5005053;28;20050;-73
2023/09/20 05:15:40;;;;;;;4.32;2.30;;;15.60;73.30;;;17.25;53.79;97414.69;5026738;28;20052;-71
2023/09/20 05:18:09;;;;;;;2.33;1.65;;;15.60;73.40;;;17.23;54.07;97407.84;5026428;28;20298;-73
2023/09/20 05:20:37;;;;;;;3.00;1.80;;;15.60;73.70;;;17.22;54.15;97411.59;5031743;28;20072;-69
2023/09/20 05:23:05;;;;;;;3.20;2.25;;;15.60;73.70;;;17.18;54.38;97404.97;5040068;28;20061;-70
2023/09/20 05:25:34;;;;;;;2.70;2.10;;;15.60;73.90;;;17.20;54.18;97410.97;5019680;28;20052;-71
2023/09/20 05:28:02;;;;;;;2.92;2.10;;;15.60;74.00;;;17.20;54.39;97417.16;5016521;28;20061;-69
2023/09/20 05:30:31;;;;;;;2.75;1.70;;;15.60;73.60;;;17.24;54.34;97414.91;5025359;28;20041;-71
2023/09/20 05:32:59;;;;;;;3.08;1.85;;;15.70;73.50;;;17.27;54.23;97422.53;5010878;28;20049;-72
2023/09/20 05:35:27;;;;;;;3.50;2.67;;;15.70;73.30;;;17.26;54.27;97413.63;5024362;28;20055;-72
2023/09/20 05:37:55;;;;;;;4.15;1.88;;;15.70;73.30;;;17.25;54.35;97425.44;5013834;28;20518;-72
2023/09/20 05:40:27;;;;;;;3.80;1.98;;;15.60;73.50;;;17.31;54.13;97421.06;5042068;28;20396;-72
2023/09/20 05:42:55;;;;;;;2.63;1.75;;;15.70;73.20;;;17.30;54.01;97416.75;5041406;28;20049;-72
2023/09/20 05:45:23;;;;;;;3.72;2.20;;;15.70;73.20;;;17.28;54.21;97408.88;5042661;28;20045;-70
2023/09/20 05:47:51;;;;;;;2.45;2.05;;;15.70;73.50;;;17.32;54.23;97418.16;5027085;28;20060;-70
2023/09/20 05:50:33;;;;;;;2.28;1.50;;;15.70;73.40;;;17.35;54.11;97413.41;5043243;28;20045;-67
2023/09/20 05:53:07;;;;;;;3.30;1.50;;;15.80;73.30;;;17.37;54.15;97412.19;5041322;28;20049;-67
2023/09/20 05:55:39;;;;;;;1.95;1.63;;;15.80;73.30;;;17.37;54.27;97411.34;5015802;28;20484;-67
2023/09/20 05:58:07;;;;;;;2.60;1.80;;;15.80;73.40;;;17.35;54.49;97413.41;5040535;28;20057;-67
2023/09/20 06:00:35;;;;;;;2.53;2.25;;;15.80;73.80;;;17.37;54.19;97406.81;5041029;28;20052;-66
2023/09/20 06:03:04;;;;;;;2.25;1.70;;;15.80;74.00;;;17.41;54.55;97412.56;5026028;28;20049;-70
2023/09/20 06:05:37;;;;;;;2.85;1.73;;;15.80;74.10;;;17.42;54.56;97416.91;5040842;28;20037;-69
2023/09/20 06:08:08;;;;;;;2.35;1.83;;;15.80;74.20;;;17.46;54.45;97415.47;5023584;28;20038;-69
2023/09/20 06:10:35;;;;;;;5.07;1.70;;;15.90;74.00;;;17.51;54.55;97419.19;5040791;28;20409;-69
2023/09/20 06:13:05;;;;;;;3.63;1.88;;;16.00;73.70;;;17.55;54.70;97416.06;5040915;28;20041;-70
2023/09/20 06:15:35;;;;;;;4.15;2.03;;;16.10;73.70;;;17.62;54.79;97423.09;5043430;28;20521;-68
2023/09/20 06:18:02;;;;;;;3.60;1.98;;;16.10;73.50;;;17.73;54.71;97420.78;5044001;28;20056;-69
2023/09/20 06:20:30;;;;;;;2.97;1.33;;;16.30;73.30;;;17.78;54.44;97413.72;5040989;28;20049;-68
2023/09/20 06:22:58;;;;;;;5.80;1.80;;;16.40;72.60;;;17.88;54.35;97432.16;5040314;28;20393;-68
2023/09/20 06:25:26;;;;;;;3.95;1.85;;;16.50;72.20;;;17.93;54.24;97426.09;5023094;28;20050;-68
2023/09/20 06:27:54;;;;;;;3.72;1.90;;;16.60;71.90;;;18.01;54.17;97428.56;5026333;28;20060;-69
2023/09/20 06:30:24;;;;;;;2.88;1.80;;;16.70;71.90;;;18.07;54.30;97423.16;5042029;28;20056;-69
2023/09/20 06:32:52;;;;;;;1.95;1.60;;;16.70;71.80;;;18.13;54.03;97418.78;5022746;28;20469;-68
2023/09/20 06:35:21;;;;;;;2.28;1.77;;;16.80;71.30;;;18.18;54.05;97410.03;5020411;28;20261;-68
2023/09/20 06:37:49;;;;;;;3.35;1.90;;;16.80;71.10;;;18.19;53.87;97414.41;5042834;28;20037;-69
2023/09/20 06:40:22;;;;;;;2.65;1.98;;;16.80;71.10;;;18.25;53.76;97414.34;5025217;28;20068;-69
2023/09/20 06:42:52;;;;;;;;;;;16.90;70.80;;;18.26;53.58;97409.78;5019318;28;20050;-69
2023/09/20 06:45:20;;;;;;;2.28;1.70;;;16.90;70.50;;;18.32;53.35;97408.09;5018847;28;19932;-69
2023/09/20 06:47:49;;;;;;;3.35;1.88;;;16.80;71.00;;;18.27;53.20;97408.75;5025342;28;20033;-69
2023/09/20 06:50:17;;;;;;;2.80;2.13;;;16.70;70.70;;;18.25;53.01;97413.53;5023686;28;20059;-68
2023/09/20 06:52:45;;;;;;;9.45;1.90;;;16.70;70.70;;;18.26;53.16;97416.03;5029627;28;20045;-68
2023/09/20 06:55:15;;;;;;;3.03;1.52;;;16.70;70.90;;;18.26;53.29;97409.78;5039747;28;20072;-68
2023/09/20 06:57:43;;;;;;;3.05;1.70;;;16.70;70.80;;;18.32;53.16;97410.78;5043793;28;20052;-68
2023/09/20 07:00:30;;;;;;;3.03;1.67;;;16.80;70.50;;;18.34;52.97;97414.94;5025313;28;20148;-67
2023/09/20 07:02:58;;;;;;;5.00;1.90;;;16.80;70.40;;;18.36;52.84;97406.63;5019670;28;20054;-67
2023/09/20 07:05:28;;;;;;;3.83;1.70;;;16.90;70.30;;;18.36;52.83;97402.06;5040898;28;20472;-67
2023/09/20 07:08:00;;;;;;;3.05;2.15;;;16.90;70.10;;;18.36;53.00;97385.06;5042669;28;20041;-67
2023/09/20 07:10:29;;;;;;;3.90;2.13;;;16.80;69.80;;;18.41;52.91;97399.53;5023950;28;20053;-67
2023/09/20 07:12:57;;;;;;;3.90;2.53;;;17.00;69.70;;;18.44;52.64;97396.41;5042920;28;20037;-67
2023/09/20 07:15:25;;;;;;;4.68;2.28;;;17.10;69.50;;;18.54;52.70;97398.63;5005653;28;20045;-67
2023/09/20 07:17:58;;;;;;;3.10;2.10;;;17.10;69.10;;;18.58;52.79;97393.63;5039411;28;20045;-68
2023/09/20 07:20:28;;;;;;;5.38;2.58;;;17.20;69.20;;;18.64;52.76;97393.56;5041306;28;20056;-67
2023/09/20 07:22:56;;;;;;;2.83;2.35;;;17.20;69.30;;;18.68;52.61;97391.25;5025263;28;20052;-68
2023/09/20 07:25:27;;;;;;;2.83;1.80;;;17.30;69.40;;;18.74;52.64;97387.69;5040388;28;20048;-69
2023/09/20 07:27:58;;;;;;;3.42;1.63;;;17.30;69.10;;;18.79;52.46;97392.44;5039381;28;20033;-72
2023/09/20 07:30:31;;;;;;;3.15;1.60;;;17.40;69.10;;;18.84;52.52;97388.06;5041130;28;20053;-71
2023/09/20 07:33:02;;;;;;;5.97;3.37;;;17.40;69.00;;;18.87;52.47;97390.31;5025807;28;20037;-66
2023/09/20 07:35:47;;;;;;;2.53;1.60;;;17.40;69.00;;;18.92;52.49;97394.22;5017931;28;20048;-68
2023/09/20 07:38:20;;;;;;;2.80;1.80;;;17.50;68.70;;;18.98;52.14;97394.19;5025311;28;20045;-65
2023/09/20 07:40:50;;;;;;;2.53;2.03;;;17.50;68.50;;;19.02;52.37;97386.47;5038514;28;20051;-63
2023/09/20 07:43:18;;;;;;;4.25;1.80;;;17.60;68.50;;;19.06;52.33;97393.06;4996946;28;20076;-65
2023/09/20 07:46:03;;;;;;;2.90;1.88;;;17.70;68.70;;;19.08;52.17;97390.97;5042324;28;20053;-64
2023/09/20 07:48:32;;;;;;;3.70;1.88;;;17.70;68.70;;;19.13;52.26;97390.28;5005896;28;20041;-64
2023/09/20 07:51:04;;;;;;;4.13;1.90;;;17.70;68.50;;;19.15;52.31;97393.59;5039075;28;20048;-65
2023/09/20 07:53:32;;;;;;;2.92;1.55;;;17.80;68.40;;;19.15;52.20;97396.28;5041236;28;20053;-65
2023/09/20 07:56:03;;;;;;;3.25;1.90;;;17.80;68.30;;;19.18;52.17;97393.97;5042028;28;20049;-65
2023/09/20 07:58:35;;;;;;;6.00;2.35;;;17.70;68.50;;;19.24;52.16;97384.19;5022401;28;20499;-65
2023/09/20 08:01:18;;;;;;;3.58;1.60;;;17.90;68.30;;;19.28;51.99;97378.09;5038777;28;20046;-65
2023/09/20 08:03:51;;;;;;;3.70;1.88;;;18.00;68.10;;;19.33;51.96;97382.00;5018399;28;20045;-65
2023/09/20 08:06:22;;;;;;;2.88;1.80;;;18.00;67.80;;;19.37;52.14;97384.03;5023665;28;20057;-67
2023/09/20 08:08:50;;;;;;;2.80;1.80;;;18.00;68.00;;;19.42;52.05;97377.97;5038723;28;20052;-63
2023/09/20 08:11:18;;;;;;;3.70;2.03;;;18.00;67.60;;;19.40;51.97;97382.75;5038689;28;20045;-64
2023/09/20 08:13:54;;;;;;;3.17;1.92;;;18.00;67.60;;;19.47;51.99;97376.25;5024538;28;20041;-69
2023/09/20 08:16:25;;;;;;;2.92;1.83;;;18.10;67.60;;;19.52;52.02;97375.56;5040823;28;20456;-68
2023/09/20 08:21:43;;;;;;;2.95;2.13;;;18.30;67.60;;;19.65;52.09;97366.50;5041921;28;20042;-67
2023/09/20 09:00:27;;;;;;;2.58;1.80;;;19.50;62.60;;;20.62;49.87;97389.97;5029539;28;20060;-68
2023/09/20 09:03:04;;;;;;;2.50;1.77;;;19.60;62.30;;;20.68;49.39;97383.63;5023719;28;20058;-69
2023/09/20 09:05:33;;;;;;;2.45;2.00;;;19.60;62.10;;;20.76;49.44;97385.16;5027331;28;20102;-70
2023/09/20 09:08:03;;;;;;;3.45;1.98;;;19.70;62.30;;;20.82;49.60;97373.41;5027459;28;20056;-70
2023/09/20 09:10:31;;;;;;;5.50;2.28;;;19.80;62.10;;;20.85;49.03;97381.06;5026022;28;20380;-67
2023/09/20 09:12:59;;;;;;;3.92;2.08;;;19.70;61.80;;;20.91;48.83;97366.59;5041766;28;20049;-68
2023/09/20 09:15:27;;;;;;;2.88;2.05;;;19.80;61.90;;;20.96;49.36;97369.44;5041910;28;20491;-69
2023/09/20 09:17:55;;;;;;;3.88;2.50;;;19.90;61.80;;;21.02;48.91;97373.09;5045025;28;20430;-69
2023/09/20 09:20:29;;;;;;;4.20;2.20;;;19.90;61.30;;;21.09;47.99;97370.25;5044584;28;20053;-69
2023/09/20 09:22:57;;;;;;;4.57;2.30;;;20.00;60.10;;;21.15;48.28;97367.47;5024781;28;20068;-69
2023/09/20 09:25:30;;;;;;;3.55;1.80;;;20.10;60.10;;;21.22;48.25;97368.13;5041777;28;20053;-70
2023/09/20 09:27:59;;;;;;;2.42;1.90;;;20.20;60.30;;;21.32;48.65;97366.72;5027807;28;20045;-68
2023/09/20 09:30:27;;;;;;;2.50;2.13;;;20.30;60.50;;;;;;5026048;28;20136;-69
2023/09/20 09:32:54;;;;;;;6.28;1.70;;;20.40;60.20;;;21.43;48.24;97355.06;5040465;28;20092;-71
2023/09/20 09:35:23;;;;;;;3.00;2.03;;;20.40;60.00;;;21.50;47.36;97357.66;5022749;28;20068;-69
2023/09/20 09:38:12;;;;;;;5.00;2.17;;;20.40;59.10;;;21.55;46.90;97346.94;5028698;28;20415;-69
2023/09/20 09:41:10;;;;;;;2.60;1.80;;;20.40;57.80;;;21.58;46.40;97360.84;5024391;28;20056;-67
2023/09/20 09:43:38;;;;;;;4.53;1.63;;;20.50;54.80;;;21.62;45.55;97348.47;5023413;28;20073;-68
2023/09/20 09:46:08;;;;;;;3.33;1.95;;;20.50;56.40;;;21.62;45.48;97345.75;5026776;28;20419;-66
2023/09/20 09:48:37;;;;;;;3.45;1.80;;;20.50;56.10;;;21.66;45.06;97342.56;5024534;28;20056;-67
2023/09/20 09:51:06;;;;;;;2.40;1.98;;;20.50;55.40;;;21.68;44.80;97335.03;5023157;28;20045;-67
2023/09/20 09:53:37;;;;;;;2.75;1.90;;;20.50;55.10;;;21.72;44.43;97345.13;5025265;28;20056;-66
2023/09/20 09:56:06;;;;;;;2.40;1.75;;;20.60;54.00;;;21.70;43.82;97336.44;5026480;28;20063;-70
2023/09/20 09:58:33;;;;;;;3.03;1.85;;;20.60;53.40;;;21.74;43.81;97334.88;5024516;28;20048;-69
2023/09/20 10:01:05;;;;;;;3.20;1.83;;;20.70;53.90;;;21.77;43.99;97334.41;5023154;28;20492;-67
2023/09/20 10:03:40;;;;;;;4.80;2.00;;;20.70;53.30;;;21.81;43.64;97322.03;5024652;28;20041;-67
2023/09/20 10:06:19;;;;;;;2.38;1.75;;;20.70;53.30;;;21.86;43.47;97324.00;5026941;28;20455;-67
2023/09/20 10:08:53;;;;;;;4.68;2.47;;;20.70;52.60;;;21.89;43.53;97320.81;5015558;28;20044;-69
2023/09/20 10:11:23;;;;;;;2.13;1.58;;;20.80;53.50;;;21.94;43.09;97320.09;5040618;28;20516;-67
2023/09/20 10:13:52;;;;;;;5.07;1.83;;;20.80;52.70;;;21.95;42.87;97313.63;5042539;28;20408;-69
2023/09/20 10:16:20;;;;;;;6.25;2.47;;;20.80;52.00;;;21.97;42.90;97312.28;5026171;28;20064;-67
2023/09/20 10:18:51;;;;;;;3.05;2.05;;;20.80;52.50;;;21.99;43.24;97312.06;5011760;28;20049;-67
2023/09/20 10:21:27;;;;;;;2.60;2.00;;;20.80;52.20;;;21.99;42.65;97314.78;5037748;28;20496;-67
2023/09/20 10:24:00;;;;;;;5.13;2.42;;;20.80;51.60;;;22.01;42.87;97312.63;5026466;28;20045;-67
2023/09/20 10:26:29;;;;;;;2.78;1.90;;;20.80;51.80;;;22.02;42.70;97308.84;5042490;28;20056;-68
2023/09/20 10:29:18;;;;;;;3.83;2.05;;;20.90;51.90;;;22.08;42.46;97302.47;5022975;28;20042;-68
2023/09/20 10:31:48;;;;;;;2.22;1.70;;;21.00;51.70;;;22.12;42.68;97300.06;5029370;28;20048;-68
2023/09/20 10:34:19;;;;;;;3.15;1.95;;;21.00;51.70;;;22.16;42.48;97296.66;5043699;28;20036;-67
2023/09/20 10:36:54;;;;;;;3.30;2.03;;;21.10;51.80;;;22.19;41.83;97288.00;5015924;28;20503;-66
2023/09/20 10:39:23;;;;;;;2.78;2.00;;;21.00;49.50;;;22.19;41.10;97288.00;5023445;28;20064;-68
2023/09/20 10:41:52;;;;;;;3.38;2.28;;;21.10;49.60;;;22.20;41.44;97286.16;5044578;28;20056;-69
2023/09/20 10:44:28;;;;;;;3.30;2.35;;;21.10;49.10;;;22.20;42.10;97280.72;5025930;28;20063;-65
2023/09/20 10:46:58;;;;;;;2.35;1.70;;;21.10;50.90;;;22.27;42.23;97277.88;5012768;28;20050;-67
2023/09/20 10:49:47;;;;;;;2.83;1.98;;;21.10;51.40;;;22.27;41.53;97267.03;5020777;28;20511;-67
2023/09/20 10:52:31;;;;;;;14.35;5.97;;;21.20;48.00;;;22.30;40.91;97270.09;5044133;28;20057;-69
2023/09/20 10:55:22;;;;;;;8.07;5.03;;;21.20;47.50;;;22.33;41.50;97266.03;5015857;28;20049;-69
2023/09/20 10:57:51;;;;;;;4.32;2.50;;;21.20;48.60;;;22.39;41.29;97265.91;5039351;28;20048;-69
2023/09/20 11:00:30;;;;;;;3.10;1.80;;;21.20;50.00;;;22.42;41.33;97264.56;5022458;28;20044;-69
2023/09/20 11:02:58;;;;;;;3.45;2.30;;;21.30;50.20;;;22.49;41.65;97264.41;5028303;28;20053;-69
2023/09/20 11:05:28;;;;;;;5.75;2.58;;;21.30;50.20;;;22.56;41.45;97249.59;5045379;28;20048;-69
2023/09/20 11:07:59;;;;;;;4.03;2.15;;;21.50;50.20;;;22.64;41.63;97248.38;5021972;28;20045;-69
2023/09/20 11:10:26;;;;;;;2.92;2.00;;;21.60;50.30;;;22.71;41.31;97248.22;5039921;28;20412;-68
2023/09/20 11:12:55;;;;;;;3.13;2.15;;;21.60;50.00;;;22.76;40.92;97238.25;5042925;28;20045;-69
2023/09/20 11:15:23;;;;;;;2.97;2.03;;;21.70;49.30;;;22.79;40.79;97243.16;5041924;28;20041;-67